Time;durP1;ratioP1;P1;durP2;ratioP2;P2;SDS_P1;SDS_P2;PMS_P1;PMS_P2;Temp;Humidity;BMP_temperature;BMP_pressure;BME280_temperature;BME280_humidity;BME280_pressure;Samples;Min_cycle;Max_cycle;Signal;HPM_P1;HPM_P2
2021/10/11 00:02:18;;;;;;;4.97;0.88;;;;;;;9.09;70.43;101640.31;4990403;28;20109;-49
2021/10/11 00:04:45;;;;;;;5.63;1.38;;;;;;;9.10;70.16;101639.50;4992182;28;20057;-53
2021/10/11 00:07:11;;;;;;;5.55;1.13;;;;;;;9.11;70.08;101628.31;4993895;28;20065;-51
2021/10/11 00:09:38;;;;;;;3.97;0.65;;;;;;;9.10;70.08;101626.56;4995095;28;20046;-51
2021/10/11 00:12:06;;;;;;;7.45;1.00;;;;;;;9.10;69.63;101636.91;4991160;28;20050;-52
2021/10/11 00:14:32;;;;;;;5.18;1.10;;;;;;;9.12;70.51;101636.97;4995156;28;20054;-51
2021/10/11 00:16:59;;;;;;;9.02;1.40;;;;;;;9.13;70.58;101630.94;4990800;28;20080;-50
2021/10/11 00:19:27;;;;;;;7.20;1.15;;;;;;;9.13;69.67;101636.97;4991643;28;20483;-49
2021/10/11 00:21:53;;;;;;;6.20;1.15;;;;;;;9.13;68.96;101636.13;4993301;28;20106;-50
2021/10/11 00:24:20;;;;;;;5.90;1.25;;;;;;;9.13;70.22;101641.28;4999529;28;20054;-49
2021/10/11 00:26:46;;;;;;;7.03;1.80;;;;;;;9.11;70.50;101636.06;4997843;28;20113;-50
2021/10/11 00:29:13;;;;;;;6.30;1.52;;;;;;;9.11;69.26;101648.09;4992450;28;20046;-51
2021/10/11 00:31:39;;;;;;;8.90;1.00;;;;;;;9.11;70.13;101645.53;4995496;28;20057;-49
2021/10/11 00:34:06;;;;;;;7.57;1.45;;;;;;;9.12;70.31;101650.75;4990256;28;20050;-49
2021/10/11 00:36:33;;;;;;;6.97;1.23;;;;;;;9.13;69.73;101642.16;4995927;28;20054;-51
2021/10/11 00:38:59;;;;;;;6.55;1.38;;;;;;;9.15;69.59;101644.78;4993995;28;20054;-50
2021/10/11 00:41:28;;;;;;;9.43;1.92;;;;;;;9.18;69.64;101650.03;4996313;28;20050;-52
2021/10/11 00:43:54;;;;;;;10.63;1.30;;;;;;;9.20;70.57;101650.97;4992583;28;20043;-52
2021/10/11 00:46:21;;;;;;;11.02;1.35;;;;;;;9.20;70.82;101653.56;4991414;28;20054;-50
2021/10/11 00:48:48;;;;;;;6.45;1.27;;;;;;;9.22;70.38;101651.88;4997455;28;20042;-50
2021/10/11 00:51:15;;;;;;;6.43;1.25;;;;;;;9.20;69.44;101645.81;4990980;28;20109;-51
2021/10/11 00:53:46;;;;;;;9.40;1.05;;;;;;;9.19;70.01;101651.78;4993675;28;20149;-50
2021/10/11 00:56:13;;;;;;;6.57;0.95;;;;;;;9.19;70.08;101649.19;4992485;28;20058;-48
2021/10/11 00:58:40;;;;;;;6.65;1.23;;;;;;;9.22;70.06;101646.72;4993160;28;20624;-49
2021/10/11 01:01:06;;;;;;;5.05;1.10;;;;;;;9.25;69.84;101649.38;4990476;28;20045;-48
2021/10/11 01:03:33;;;;;;;9.15;1.02;;;;;;;9.30;70.04;101638.31;4987773;28;20592;-49
2021/10/11 01:06:00;;;;;;;5.07;1.00;;;;;;;9.31;69.74;101634.88;4990732;28;20058;-49
2021/10/11 01:08:27;;;;;;;11.75;1.50;;;;;;;9.32;70.63;101631.47;4984590;28;20493;-48
2021/10/11 01:10:56;;;;;;;5.25;1.17;;;;;;;9.31;69.96;101635.75;4993710;28;20058;-50
2021/10/11 01:13:23;;;;;;;9.32;1.00;;;;;;;9.29;70.58;101636.56;5001298;28;20121;-51
2021/10/11 01:15:49;;;;;;;4.43;0.95;;;;;;;9.26;70.66;101635.63;4992880;28;20053;-48
2021/10/11 01:18:16;;;;;;;5.95;1.30;;;;;;;9.23;70.51;101632.94;4989759;28;20669;-50
2021/10/11 01:20:42;;;;;;;5.45;1.05;;;;;;;9.22;70.73;101636.38;4994506;28;20053;-52
2021/10/11 01:23:09;;;;;;;9.80;1.25;;;;;;;9.19;70.44;101636.28;4995114;28;20464;-50
2021/10/11 01:25:36;;;;;;;7.25;1.27;;;;;;;9.17;71.16;101627.63;4987537;28;20576;-51
2021/10/11 01:28:03;;;;;;;6.85;1.15;;;;;;;9.12;70.28;101624.03;4989639;28;21490;-54
2021/10/11 01:30:30;;;;;;;9.13;1.42;;;;;;;9.10;70.35;101626.56;4990191;28;20074;-51
2021/10/11 01:32:57;;;;;;;3.80;1.48;;;;;;;9.08;71.10;101617.88;4994057;28;20058;-51
2021/10/11 01:35:23;;;;;;;5.47;1.00;;;;;;;9.06;70.40;101613.50;4994538;28;20578;-51
2021/10/11 01:37:50;;;;;;;7.30;1.30;;;;;;;9.04;71.36;101609.97;4992756;28;20050;-50
2021/10/11 01:40:20;;;;;;;6.55;1.33;;;;;;;9.03;70.96;101605.66;4998722;28;20050;-50
2021/10/11 01:42:47;;;;;;;10.55;1.05;;;;;;;8.97;70.14;101609.81;4986659;28;20050;-49
2021/10/11 01:45:14;;;;;;;8.75;1.67;;;;;;;8.95;70.41;101615.78;4995545;28;20038;-52
2021/10/11 01:47:41;;;;;;;4.43;1.13;;;;;;;8.94;71.51;101627.81;4990582;28;20048;-51
2021/10/11 01:50:07;;;;;;;9.15;1.38;;;;;;;8.91;71.71;101621.69;4990987;28;20187;-50
2021/10/11 01:52:35;;;;;;;9.55;1.20;;;;;;;8.90;71.26;101623.41;4992853;28;20038;-49
2021/10/11 01:55:04;;;;;;;7.90;1.27;;;;;;;8.85;70.29;101615.50;4992024;28;20042;-48
2021/10/11 01:57:31;;;;;;;6.13;1.10;;;;;;;8.84;71.49;101618.03;4988821;28;20100;-50
2021/10/11 01:59:58;;;;;;;9.90;1.38;;;;;;;8.83;71.89;101624.94;4989526;28;20445;-51
2021/10/11 02:02:27;;;;;;;6.47;1.33;;;;;;;8.81;71.12;101630.88;5000683;28;20707;-52
2021/10/11 02:04:53;;;;;;;7.82;1.20;;;;;;;8.81;72.05;101633.47;4993033;28;20116;-49
2021/10/11 02:07:20;;;;;;;4.60;1.27;;;;;;;8.81;71.09;101623.13;4992904;28;20046;-49
2021/10/11 02:09:48;;;;;;;5.35;1.30;;;;;;;8.82;72.20;101630.03;4993905;28;20042;-52
2021/10/11 02:12:15;;;;;;;6.05;1.27;;;;;;;8.80;72.39;101621.34;4988499;28;20050;-49
2021/10/11 02:14:42;;;;;;;7.47;1.45;;;;;;;8.80;72.49;101621.34;4989334;28;20101;-50
2021/10/11 02:17:09;;;;;;;12.60;1.38;;;;;;;8.80;72.21;101616.19;4990076;28;20131;-49
2021/10/11 02:19:35;;;;;;;7.30;1.63;;;;;;;8.79;72.21;101609.28;4988502;28;20097;-49
2021/10/11 02:22:02;;;;;;;9.52;1.67;;;;;;;8.80;71.59;101605.84;4994256;28;20046;-48
2021/10/11 02:24:29;;;;;;;10.07;2.00;;;;;;;8.80;71.96;101603.28;4991211;28;20053;-48
2021/10/11 02:26:55;;;;;;;4.45;1.35;;;;;;;8.79;72.86;101598.94;5000146;28;20119;-48
2021/10/11 02:29:22;;;;;;;7.38;1.42;;;;;;;8.79;71.99;101598.94;4987491;28;20545;-52
2021/10/11 02:31:48;;;;;;;4.55;1.30;;;;;;;8.79;72.91;101609.28;4998427;28;20067;-50
2021/10/11 02:34:15;;;;;;;5.65;1.98;;;;;;;8.79;72.04;101605.00;4988863;28;20050;-49
2021/10/11 02:36:42;;;;;;;9.38;1.50;;;;;;;8.77;72.67;101598.00;4994996;28;20108;-50
2021/10/11 02:39:08;;;;;;;7.60;1.10;;;;;;;8.78;72.90;101592.03;4992617;28;20073;-48
2021/10/11 02:41:35;;;;;;;7.00;1.23;;;;;;;8.78;72.19;101594.63;4989282;28;20061;-50
2021/10/11 02:44:02;;;;;;;13.13;1.40;;;;;;;8.76;73.43;101598.84;4986172;28;20054;-49
2021/10/11 02:46:29;;;;;;;8.95;1.75;;;;;;;8.74;72.47;101596.22;4989577;28;20356;-49
2021/10/11 02:48:55;;;;;;;7.10;1.63;;;;;;;8.74;73.30;101606.56;4988919;28;20138;-49
2021/10/11 02:51:22;;;;;;;9.30;1.35;;;;;;;8.74;73.15;101603.97;4990855;28;20058;-49
2021/10/11 02:53:49;;;;;;;8.73;1.85;;;;;;;8.72;72.22;101601.34;4990579;28;20077;-49
2021/10/11 02:56:17;;;;;;;5.00;1.30;;;;;;;8.72;71.99;101592.72;4991178;28;20049;-49
2021/10/11 02:58:44;;;;;;;6.85;1.50;;;;;;;8.68;72.69;101602.06;4985382;28;20051;-49
2021/10/11 03:01:12;;;;;;;3.88;1.15;;;;;;;8.65;72.21;101586.47;4988545;28;20077;-49
2021/10/11 03:03:39;;;;;;;9.52;1.25;;;;;;;8.64;72.94;101584.72;4993717;28;20134;-50
2021/10/11 03:06:06;;;;;;;6.28;1.33;;;;;;;8.61;71.95;101587.22;4997531;28;20051;-48
2021/10/11 03:08:33;;;;;;;9.20;1.55;;;;;;;8.59;72.54;101581.16;4992139;28;20109;-49
2021/10/11 03:11:01;;;;;;;8.10;1.73;;;;;;;8.59;73.08;101581.16;4991322;28;20104;-49
2021/10/11 03:13:28;;;;;;;7.22;1.40;;;;;;;8.58;71.77;101576.81;4989180;28;20054;-49
2021/10/11 03:15:55;;;;;;;7.43;1.50;;;;;;;8.56;72.68;101583.63;4991578;28;20491;-49
2021/10/11 03:18:22;;;;;;;3.40;1.38;;;;;;;8.54;73.13;101582.72;4994676;28;20470;-48
2021/10/11 03:20:49;;;;;;;5.90;1.05;;;;;;;8.54;72.64;101587.88;4990622;28;20042;-49
2021/10/11 03:23:16;;;;;;;9.00;1.63;;;;;;;8.52;72.93;101579.16;4992917;28;20533;-49
2021/10/11 03:25:43;;;;;;;10.07;1.50;;;;;;;8.48;72.69;101579.06;5003700;28;20101;-48
2021/10/11 03:28:10;;;;;;;7.32;1.52;;;;;;;8.45;72.34;101571.22;4987247;28;20051;-49
2021/10/11 03:30:36;;;;;;;6.15;1.92;;;;;;;8.45;71.79;101565.19;4987524;28;20070;-49
2021/10/11 03:33:03;;;;;;;6.22;1.63;;;;;;;8.44;71.90;101561.72;4989937;28;20061;-50
2021/10/11 03:35:30;;;;;;;11.23;1.60;;;;;;;8.43;72.58;101554.81;4989519;28;20510;-49
2021/10/11 03:37:56;;;;;;;5.88;1.40;;;;;;;8.40;73.27;101559.00;4987061;28;20058;-49
2021/10/11 03:40:23;;;;;;;8.27;1.48;;;;;;;8.38;73.19;101556.41;4991101;28;20054;-49
2021/10/11 03:42:50;;;;;;;7.63;1.60;;;;;;;8.36;72.82;101558.94;4987937;28;20054;-49
2021/10/11 03:45:16;;;;;;;5.82;1.30;;;;;;;8.36;73.17;101552.88;4994555;28;20441;-52
2021/10/11 03:47:43;;;;;;;13.50;2.00;;;;;;;8.34;72.91;101554.53;5001954;28;20434;-50
2021/10/11 03:50:09;;;;;;;9.77;1.50;;;;;;;8.32;72.05;101566.53;4990104;28;20107;-50
2021/10/11 03:52:36;;;;;;;6.65;1.60;;;;;;;8.30;72.94;101563.00;4991557;28;20109;-50
2021/10/11 03:55:03;;;;;;;7.43;1.27;;;;;;;8.29;72.29;101562.16;4986507;28;20116;-51
2021/10/11 03:57:30;;;;;;;7.20;1.38;;;;;;;8.27;72.11;101552.59;4995844;28;20383;-49
2021/10/11 03:59:57;;;;;;;8.40;2.00;;;;;;;8.23;73.38;101560.25;4994092;28;20458;-50
2021/10/11 04:02:23;;;;;;;7.07;1.88;;;;;;;8.21;73.51;101564.47;4996630;28;20423;-48
2021/10/11 04:04:50;;;;;;;6.47;1.60;;;;;;;8.19;73.62;101566.16;4998761;28;20042;-50
2021/10/11 04:07:18;;;;;;;6.45;1.45;;;;;;;8.16;72.94;101560.88;4992514;28;20120;-50
2021/10/11 04:09:46;;;;;;;5.68;1.35;;;;;;;8.13;73.35;101550.47;4997256;28;20061;-50
2021/10/11 04:12:21;;;;;;;7.25;1.45;;;;;;;8.11;73.83;101559.88;4990641;28;20054;-49
2021/10/11 04:14:52;;;;;;;6.38;1.80;;;;;;;8.09;73.06;101558.94;4998348;28;20124;-49
2021/10/11 04:17:19;;;;;;;5.45;1.23;;;;;;;8.08;71.83;101554.59;4995001;28;20497;-49
2021/10/11 04:19:45;;;;;;;5.78;1.63;;;;;;;8.06;72.03;101545.94;4994959;28;20121;-51
2021/10/11 04:22:12;;;;;;;8.02;1.15;;;;;;;8.04;73.50;101563.06;4993349;28;20056;-51
2021/10/11 04:24:39;;;;;;;6.72;1.23;;;;;;;8.03;72.86;101575.09;4991123;28;20050;-51
2021/10/11 04:27:05;;;;;;;10.02;1.83;;;;;;;8.03;73.24;101579.38;5003885;28;20049;-49
2021/10/11 04:29:32;;;;;;;6.32;0.95;;;;;;;8.02;72.64;101577.63;4992107;28;20054;-49
2021/10/11 04:31:58;;;;;;;9.02;1.30;;;;;;;8.01;72.05;101576.75;4998691;28;20054;-50
2021/10/11 04:34:25;;;;;;;12.00;1.85;;;;;;;8.00;73.10;101566.38;4998631;28;20058;-48
2021/10/11 04:36:52;;;;;;;9.65;1.40;;;;;;;7.97;72.94;101555.13;4992701;28;20104;-50
2021/10/11 04:39:18;;;;;;;8.43;1.58;;;;;;;7.96;73.26;101574.03;4990901;28;20453;-52
2021/10/11 04:41:45;;;;;;;7.72;1.67;;;;;;;7.95;72.68;101587.75;4992350;28;20050;-49
2021/10/11 04:44:11;;;;;;;5.35;1.38;;;;;;;7.95;72.62;101581.72;5000893;28;20101;-49
2021/10/11 04:46:38;;;;;;;9.25;1.60;;;;;;;7.93;72.93;101584.25;4992986;28;20442;-49
2021/10/11 04:49:05;;;;;;;4.90;2.03;;;;;;;7.91;73.90;101575.56;5000941;28;20050;-49
2021/10/11 04:51:31;;;;;;;6.38;1.02;;;;;;;7.90;72.98;101568.66;4991823;28;20046;-49
2021/10/11 04:53:58;;;;;;;11.90;2.20;;;;;;;7.91;72.51;101585.03;5002009;28;20077;-50
2021/10/11 04:56:25;;;;;;;4.90;1.23;;;;;;;7.90;73.39;101578.13;4994910;28;20073;-49
2021/10/11 04:58:51;;;;;;;9.05;1.88;;;;;;;7.90;73.35;101581.56;4991587;28;20054;-49
2021/10/11 05:01:18;;;;;;;11.38;1.77;;;;;;;7.90;74.16;101573.81;4998717;28;20046;-49
2021/10/11 05:03:44;;;;;;;9.98;2.13;;;;;;;7.91;72.63;101575.56;4993392;28;20141;-48
2021/10/11 05:06:11;;;;;;;6.65;1.23;;;;;;;7.91;72.49;101570.41;4995969;28;20069;-49
2021/10/11 05:08:38;;;;;;;9.63;1.60;;;;;;;7.90;72.46;101571.22;4992264;28;20046;-50
2021/10/11 05:11:04;;;;;;;7.88;1.83;;;;;;;7.90;72.58;101573.81;4998274;28;20101;-49
2021/10/11 05:13:31;;;;;;;7.43;1.48;;;;;;;7.89;74.48;101574.66;4995476;28;20112;-49
2021/10/11 05:15:59;;;;;;;5.47;1.33;;;;;;;7.88;73.38;101575.47;4993173;28;20042;-49
2021/10/11 05:18:25;;;;;;;6.30;1.23;;;;;;;7.86;72.84;101574.53;4991032;28;20058;-49
2021/10/11 05:20:52;;;;;;;8.70;1.25;;;;;;;7.87;74.51;101581.44;4991175;28;20108;-49
2021/10/11 05:23:19;;;;;;;10.50;1.42;;;;;;;7.87;73.20;101583.16;4989141;28;20046;-49
2021/10/11 05:25:45;;;;;;;7.72;1.35;;;;;;;7.87;73.25;101588.31;4996300;28;20042;-51
2021/10/11 05:28:12;;;;;;;4.75;1.02;;;;;;;7.84;73.47;101596.84;4992183;28;20058;-49
2021/10/11 05:30:40;;;;;;;4.60;1.55;;;;;;;7.83;73.70;101597.66;4997969;28;20054;-50
2021/10/11 05:33:08;;;;;;;11.18;1.30;;;;;;;7.84;73.06;101602.00;4992908;28;20054;-49
2021/10/11 05:35:37;;;;;;;6.47;1.10;;;;;;;7.82;74.72;101595.91;5001768;28;20042;-49
2021/10/11 05:38:04;;;;;;;6.95;1.45;;;;;;;7.82;73.75;101590.75;4990989;28;20050;-50
2021/10/11 05:40:32;;;;;;;12.48;1.58;;;;;;;7.81;73.24;101589.00;5001772;28;20046;-50
2021/10/11 05:42:58;;;;;;;7.93;1.45;;;;;;;7.78;73.74;101582.03;4995190;28;20660;-49
2021/10/11 05:45:25;;;;;;;6.97;1.65;;;;;;;7.78;74.34;101583.72;4990492;28;20140;-49
2021/10/11 05:47:52;;;;;;;5.43;2.00;;;;;;;7.75;74.22;101593.94;4989158;28;20130;-49
2021/10/11 05:50:18;;;;;;;11.07;1.45;;;;;;;7.74;74.05;101602.50;4991848;28;20069;-50
2021/10/11 05:52:45;;;;;;;5.65;1.73;;;;;;;7.73;72.98;101588.72;4993344;28;20096;-49
2021/10/11 05:55:11;;;;;;;11.82;1.60;;;;;;;7.69;74.20;101595.50;4988102;28;20050;-50
2021/10/11 05:57:38;;;;;;;8.32;1.98;;;;;;;7.69;73.10;101584.28;4994587;28;20046;-51
2021/10/11 06:00:05;;;;;;;7.75;1.33;;;;;;;7.66;73.61;101590.22;4991802;28;20116;-49
2021/10/11 06:02:32;;;;;;;6.90;1.20;;;;;;;7.67;73.38;101597.13;4987401;28;20042;-49
2021/10/11 06:04:59;;;;;;;9.63;1.33;;;;;;;7.65;73.76;101593.63;4999910;28;20512;-50
2021/10/11 06:07:26;;;;;;;3.72;0.90;;;;;;;7.65;73.37;101598.78;4991449;28;20062;-51
2021/10/11 06:09:53;;;;;;;8.15;1.67;;;;;;;7.63;73.59;101590.13;4991052;28;20054;-53
2021/10/11 06:12:20;;;;;;;9.18;1.13;;;;;;;7.62;74.43;101588.38;4987438;28;20069;-50
2021/10/11 06:14:58;;;;;;;6.47;1.48;;;;;;;7.60;75.19;101595.16;4989685;28;20482;-50
2021/10/11 06:17:25;;;;;;;5.80;1.38;;;;;;;7.59;74.73;101596.00;4995954;28;20088;-50
2021/10/11 06:19:52;;;;;;;3.47;1.05;;;;;;;7.57;74.06;101592.50;4990309;28;20069;-51
2021/10/11 06:22:19;;;;;;;12.82;2.40;;;;;;;7.59;74.19;101594.31;4990849;28;20097;-49
2021/10/11 06:24:46;;;;;;;5.70;1.00;;;;;;;7.60;74.24;101590.00;4988401;28;20541;-50
2021/10/11 06:27:13;;;;;;;7.13;1.48;;;;;;;7.57;74.17;101597.66;4998710;28;20046;-49
2021/10/11 06:29:39;;;;;;;11.13;2.85;;;;;;;7.58;74.02;101604.56;4990940;28;20058;-49
2021/10/11 06:32:06;;;;;;;5.03;1.85;;;;;;;7.59;74.13;101603.72;4984533;28;20046;-50
2021/10/11 06:34:33;;;;;;;9.55;1.48;;;;;;;7.58;74.65;101622.63;4992842;28;20053;-49
2021/10/11 06:36:59;;;;;;;4.63;1.00;;;;;;;7.59;73.80;101614.94;4988827;28;20046;-52
2021/10/11 06:39:26;;;;;;;3.70;1.52;;;;;;;7.61;73.50;101612.41;4989481;28;20058;-49
2021/10/11 06:41:53;;;;;;;10.55;1.42;;;;;;;7.62;74.35;101616.72;4986354;28;20042;-49
2021/10/11 06:44:19;;;;;;;5.28;1.35;;;;;;;7.63;74.16;101613.31;4985131;28;20046;-52
2021/10/11 06:46:47;;;;;;;9.95;3.03;;;;;;;7.65;74.53;101609.09;4988108;28;20081;-50
2021/10/11 06:49:13;;;;;;;5.15;1.35;;;;;;;7.69;75.28;101621.28;4986319;28;20046;-52
2021/10/11 06:51:40;;;;;;;6.63;1.75;;;;;;;7.71;73.83;101618.75;4987757;28;20541;-49
2021/10/11 06:54:07;;;;;;;7.40;1.40;;;;;;;7.75;74.56;101627.47;4989145;28;20047;-49
2021/10/11 06:56:33;;;;;;;11.52;1.75;;;;;;;7.78;73.40;101630.16;4991361;28;20104;-49
2021/10/11 06:59:00;;;;;;;10.18;1.42;;;;;;;7.81;73.83;101625.97;4985044;28;20054;-49
2021/10/11 07:01:27;;;;;;;12.88;1.70;;;;;;;7.86;74.53;101628.72;4991233;28;20050;-50
2021/10/11 07:03:54;;;;;;;6.35;1.13;;;;;;;7.89;74.39;101625.34;4985835;28;20125;-50
2021/10/11 07:06:22;;;;;;;12.00;1.92;;;;;;;7.89;74.81;101626.25;4989356;28;20050;-52
2021/10/11 07:08:48;;;;;;;9.57;1.50;;;;;;;7.92;73.72;101626.34;4986100;28;20116;-52
2021/10/11 07:11:15;;;;;;;9.75;2.25;;;;;;;7.96;73.34;101620.47;4985310;28;20045;-49
2021/10/11 07:13:42;;;;;;;8.45;1.20;;;;;;;8.00;73.46;101634.34;4982422;28;20371;-50
2021/10/11 07:16:08;;;;;;;7.38;2.10;;;;;;;8.04;74.19;101622.44;4988096;28;20049;-49
2021/10/11 07:18:35;;;;;;;6.60;1.33;;;;;;;8.10;73.22;101623.50;4988118;28;20093;-49
2021/10/11 07:21:03;;;;;;;11.27;1.58;;;;;;;8.16;74.25;101633.16;4987490;28;20082;-49
2021/10/11 07:23:31;;;;;;;7.25;1.58;;;;;;;8.23;74.05;101634.22;4989771;28;20108;-49
2021/10/11 07:25:58;;;;;;;10.93;1.33;;;;;;;8.29;73.93;101638.72;4988179;28;20046;-50
2021/10/11 07:28:26;;;;;;;8.73;1.90;;;;;;;8.35;74.16;101644.94;4985731;28;20059;-50
2021/10/11 07:30:53;;;;;;;12.32;1.80;;;;;;;8.41;74.81;101644.25;4989099;28;20062;-49
2021/10/11 07:33:21;;;;;;;4.03;1.13;;;;;;;8.49;72.87;101653.13;4992287;28;20046;-49
2021/10/11 07:35:49;;;;;;;6.43;1.23;;;;;;;8.58;74.34;101646.56;4992315;28;20058;-50
2021/10/11 07:38:16;;;;;;;6.40;1.90;;;;;;;8.71;72.92;101647.78;5005644;28;20041;-50
2021/10/11 07:40:50;;;;;;;5.75;1.40;;;;;;;8.90;73.82;101651.81;4990934;28;20042;-49
2021/10/11 07:43:17;;;;;;;5.38;1.40;;;;;;;9.10;74.17;101661.88;4993368;28;20061;-49
2021/10/11 07:45:43;;;;;;;8.90;1.70;;;;;;;9.34;73.25;101660.81;4995119;28;20042;-49
2021/10/11 07:48:10;;;;;;;4.50;1.00;;;;;;;9.60;73.27;101663.28;5001055;28;20555;-49
2021/10/11 07:50:37;;;;;;;10.52;1.23;;;;;;;9.87;72.94;101672.59;4997156;28;20049;-49
2021/10/11 07:53:04;;;;;;;6.25;1.02;;;;;;;10.09;72.24;101667.97;4993698;28;20108;-52
2021/10/11 07:55:30;;;;;;;7.15;1.30;;;;;;;10.27;71.97;101663.25;5004959;28;20521;-49
2021/10/11 07:57:57;;;;;;;5.50;1.33;;;;;;;10.47;71.33;101677.56;4988235;28;20053;-50
2021/10/11 08:00:24;;;;;;;6.45;1.50;;;;;;;10.61;70.97;101675.31;4992741;28;20607;-50
2021/10/11 08:02:51;;;;;;;7.35;1.35;;;;;;;10.77;70.97;101674.81;4992588;28;20475;-50
2021/10/11 08:05:19;;;;;;;6.63;1.10;;;;;;;10.98;71.35;101683.91;4993951;28;20136;-49
2021/10/11 08:07:45;;;;;;;6.47;1.02;;;;;;;11.10;70.40;101687.59;4994103;28;20066;-50
2021/10/11 08:10:12;;;;;;;7.47;0.85;;;;;;;11.16;70.52;101687.75;4991247;28;20107;-50
2021/10/11 08:12:39;;;;;;;4.95;1.45;;;;;;;11.23;69.81;101692.22;4987554;28;20053;-52
2021/10/11 08:15:07;;;;;;;4.30;0.80;;;;;;;11.30;70.45;101696.69;4986372;28;20103;-49
2021/10/11 08:17:33;;;;;;;9.68;1.35;;;;;;;11.32;70.48;101705.38;5000078;28;20397;-50
2021/10/11 08:20:00;;;;;;;5.63;1.00;;;;;;;11.34;70.00;101702.81;4989166;28;20720;-52
2021/10/11 08:22:28;;;;;;;7.45;1.35;;;;;;;11.50;69.67;101701.41;4988532;28;20065;-50
2021/10/11 08:24:55;;;;;;;6.70;1.90;;;;;;;11.65;69.09;101699.97;4989476;28;20413;-49
2021/10/11 08:27:22;;;;;;;5.18;1.30;;;;;;;11.75;69.33;101696.69;4989980;28;20069;-52
2021/10/11 08:29:53;;;;;;;8.82;1.17;;;;;;;11.81;68.53;101699.41;4990990;28;20548;-53
2021/10/11 08:32:23;;;;;;;9.20;1.25;;;;;;;11.81;68.57;101696.81;4990710;28;20053;-53
2021/10/11 08:34:51;;;;;;;6.47;1.13;;;;;;;11.85;68.17;101700.34;4990518;28;20053;-54
2021/10/11 08:37:21;;;;;;;10.57;1.30;;;;;;;12.01;69.45;101703.22;4988031;28;20053;-50
2021/10/11 08:39:48;;;;;;;4.95;0.85;;;;;;;12.19;68.52;101697.50;4988902;28;20145;-51
2021/10/11 08:42:16;;;;;;;3.42;1.13;;;;;;;12.26;68.90;101701.94;4993737;28;20073;-53
2021/10/11 08:44:44;;;;;;;10.50;1.73;;;;;;;12.24;67.52;101702.78;4995210;28;20104;-53
2021/10/11 08:47:12;;;;;;;6.82;1.55;;;;;;;12.20;68.53;101702.72;4995411;28;20095;-50
2021/10/11 08:49:43;;;;;;;6.88;1.42;;;;;;;12.13;68.14;101710.38;4987896;28;20042;-53
2021/10/11 08:52:10;;;;;;;8.77;1.65;;;;;;;12.06;68.69;101710.25;4994281;28;20105;-50
2021/10/11 08:54:38;;;;;;;6.30;1.60;;;;;;;12.00;68.40;101704.94;4987410;28;20042;-52
2021/10/11 08:57:06;;;;;;;7.75;1.40;;;;;;;11.94;69.32;101704.81;4986809;28;20072;-51
2021/10/11 08:59:46;;;;;;;9.07;1.38;;;;;;;11.87;68.22;101703.84;4990109;28;20069;-53
2021/10/11 09:02:15;;;;;;;5.88;1.40;;;;;;;11.81;69.08;101699.41;4986641;28;20075;-51
2021/10/11 09:04:56;;;;;;;6.90;1.60;;;;;;;11.77;69.84;101692.41;4993459;28;20046;-50
2021/10/11 09:07:24;;;;;;;6.97;1.17;;;;;;;11.76;68.71;101701.03;4983667;28;20050;-53
2021/10/11 09:09:52;;;;;;;6.65;1.52;;;;;;;11.74;69.81;101692.34;4995312;28;20425;-54
2021/10/11 09:12:23;;;;;;;12.38;1.95;;;;;;;11.73;69.07;101690.63;4990639;28;20053;-51
2021/10/11 09:15:03;;;;;;;8.40;1.77;;;;;;;11.76;69.19;101689.78;4993053;28;20062;-51
2021/10/11 09:17:33;;;;;;;7.70;1.60;;;;;;;11.81;68.89;101688.13;4989831;28;20054;-53
2021/10/11 09:20:21;;;;;;;9.18;2.03;;;;;;;11.83;69.85;101687.31;4991340;28;20046;-54
2021/10/11 09:22:51;;;;;;;8.10;1.98;;;;;;;11.92;69.03;101685.75;4984314;28;20045;-51
2021/10/11 09:25:21;;;;;;;9.88;2.60;;;;;;;11.98;69.04;101680.66;4988139;28;20046;-51
2021/10/11 09:27:54;;;;;;;9.27;2.53;;;;;;;12.02;69.51;101682.47;4992291;28;20050;-51
2021/10/11 09:30:25;;;;;;;9.05;1.90;;;;;;;12.08;68.67;101687.81;4987006;28;20105;-51
2021/10/11 09:33:05;;;;;;;13.80;2.85;;;;;;;12.12;69.63;101687.88;4992115;28;20050;-51
2021/10/11 09:35:33;;;;;;;11.13;2.90;;;;;;;12.16;68.41;101694.88;4992694;28;20065;-51
2021/10/11 09:38:00;;;;;;;6.20;2.40;;;;;;;12.23;68.57;101681.13;4991338;28;20050;-53
2021/10/11 09:40:26;;;;;;;7.38;2.22;;;;;;;12.37;69.32;101681.34;4989782;28;20051;-52
2021/10/11 09:42:53;;;;;;;9.75;1.88;;;;;;;12.56;67.92;101690.31;4987676;28;20054;-51
2021/10/11 09:45:24;;;;;;;9.88;1.88;;;;;;;12.75;67.76;101687.97;4994354;28;20054;-51
2021/10/11 09:47:51;;;;;;;13.13;2.35;;;;;;;12.93;67.35;101683.88;4988086;28;20054;-51
2021/10/11 09:50:18;;;;;;;13.35;2.15;;;;;;;13.18;68.29;101689.44;4985991;28;20050;-51
2021/10/11 09:52:45;;;;;;;12.52;2.05;;;;;;;13.46;68.17;101684.56;4984628;28;20046;-54
2021/10/11 09:55:13;;;;;;;6.30;1.23;;;;;;;13.90;66.50;101679.81;4985707;28;21331;-51
2021/10/11 09:57:40;;;;;;;10.45;3.10;;;;;;;14.20;64.89;101680.97;4991195;28;20384;-51
2021/10/11 10:00:12;;;;;;;7.50;1.38;;;;;;;14.38;65.63;101678.50;4989233;28;20057;-52
2021/10/11 10:02:41;;;;;;;9.80;1.92;;;;;;;14.48;64.18;101674.25;4993413;28;20042;-51
2021/10/11 10:05:14;;;;;;;7.15;1.80;;;;;;;14.65;64.03;101676.09;4987535;28;20453;-52
2021/10/11 10:07:46;;;;;;;9.50;1.83;;;;;;;14.86;64.61;101685.81;4991302;28;20064;-51
2021/10/11 10:10:16;;;;;;;4.43;2.40;;;;;;;15.23;62.88;101679.03;4990236;28;20520;-51
2021/10/11 10:12:45;;;;;;;12.60;2.08;;;;;;;15.68;62.61;101682.63;4992764;28;20070;-52
2021/10/11 10:15:13;;;;;;;8.95;1.83;;;;;;;16.03;61.64;101677.50;4999071;28;20046;-54
2021/10/11 10:17:39;;;;;;;5.55;1.70;;;;;;;16.33;61.31;101681.00;4988293;28;20058;-49
2021/10/11 10:20:10;;;;;;;5.68;1.48;;;;;;;16.63;60.37;101681.84;4989059;28;20121;-49
2021/10/11 10:22:50;;;;;;;8.52;1.45;;;;;;;16.94;59.10;101684.38;4983865;28;20069;-49
2021/10/11 10:25:17;;;;;;;12.40;2.08;;;;;;;17.19;58.66;101681.69;4989404;28;20698;-49
2021/10/11 10:27:47;;;;;;;11.40;2.10;;;;;;;17.11;57.13;101678.22;4988107;28;20105;-51
2021/10/11 10:30:19;;;;;;;;;;;;;;;17.26;58.47;101679.03;4985684;28;20553;-49
2021/10/11 10:32:55;;;;;;;9.38;1.58;;;;;;;17.56;56.21;101687.63;4984397;28;20500;-50
2021/10/11 10:35:22;;;;;;;9.07;1.88;;;;;;;17.44;56.38;101684.19;4986987;28;20119;-50
2021/10/11 10:37:49;;;;;;;7.95;1.73;;;;;;;17.50;55.77;101682.41;4992783;28;20043;-51
2021/10/11 10:40:19;;;;;;;6.95;1.17;;;;;;;17.45;55.46;101675.44;4988282;28;20058;-49
2021/10/11 10:42:47;;;;;;;7.15;1.58;;;;;;;17.38;56.23;101672.84;4989719;28;20054;-51
2021/10/11 10:45:20;;;;;;;13.35;1.77;;;;;;;17.28;55.25;101677.28;4988327;28;20540;-52
2021/10/11 10:47:49;;;;;;;6.63;1.45;;;;;;;17.16;55.89;101679.06;4990253;28;20054;-49
2021/10/11 10:50:20;;;;;;;9.40;2.03;;;;;;;17.08;55.35;101675.63;4984927;28;20395;-50
2021/10/11 10:52:48;;;;;;;8.60;1.67;;;;;;;17.00;56.36;101677.34;4984188;28;20050;-51
2021/10/11 10:55:16;;;;;;;7.10;1.10;;;;;;;16.94;56.86;101673.03;4991822;28;20042;-50
2021/10/11 10:57:43;;;;;;;7.97;1.38;;;;;;;16.83;56.39;101681.75;4991942;28;20062;-52
2021/10/11 11:00:15;;;;;;;6.15;1.98;;;;;;;16.70;56.13;101683.56;4990611;28;20383;-52
2021/10/11 11:02:51;;;;;;;5.93;1.17;;;;;;;16.51;56.21;101674.00;4991891;28;20045;-53
2021/10/11 11:05:20;;;;;;;10.02;1.52;;;;;;;16.38;56.59;101674.00;4986419;28;20154;-47
2021/10/11 11:07:50;;;;;;;7.93;1.42;;;;;;;16.26;56.90;101668.78;4984149;28;20050;-50
2021/10/11 11:10:18;;;;;;;7.28;1.23;;;;;;;16.14;57.35;101664.44;4998581;28;20076;-55
2021/10/11 11:13:07;;;;;;;8.32;1.83;;;;;;;16.00;56.39;101667.91;4985561;28;20109;-51
2021/10/11 11:15:37;;;;;;;7.28;1.35;;;;;;;15.96;57.46;101667.91;4991766;28;20058;-54
2021/10/11 11:18:08;;;;;;;9.02;1.27;;;;;;;15.88;57.26;101663.50;4988331;28;20465;-52
2021/10/11 11:20:37;;;;;;;5.00;1.58;;;;;;;15.81;57.16;101667.00;4985061;28;20058;-52
2021/10/11 11:23:06;;;;;;;9.98;1.90;;;;;;;15.77;58.18;101660.03;4989657;28;20041;-54
2021/10/11 11:25:37;;;;;;;5.72;1.35;;;;;;;15.75;58.30;101662.66;4985594;28;20054;-51
2021/10/11 11:28:07;;;;;;;7.60;1.05;;;;;;;15.73;57.99;101668.72;4988490;28;20050;-53
2021/10/11 11:30:34;;;;;;;3.95;1.42;;;;;;;15.77;58.42;101667.88;4989103;28;20049;-51
2021/10/11 11:33:05;;;;;;;4.85;1.02;;;;;;;15.81;58.45;101665.25;4988817;28;20565;-53